Tuesday, June 19, 2018, 12:56 AM EDT
Back to Local

KLOM, Philadelphia, Wings Field Airport

Location: Blue Bell, PA, United States Lat: 40.138
Local Time: 12:56 AM EDT ( 4:56 GMT) Lon: -75.265
Time Zone: US/Eastern Elev: 301 ft

Show me the last for .
Show Decoded

2018-06-19 00:35 METAR KLOM 190435Z AUTO 00000KT 10SM CLR 24/23 A2984 RMK AO1 =
2018-06-19 00:15 METAR KLOM 190415Z AUTO 23003KT 10SM CLR 25/23 A2984 RMK AO1 =
2018-06-18 23:55 METAR KLOM 190355Z AUTO 22003KT 10SM CLR 25/23 A2984 RMK AO1 =
2018-06-18 23:35 METAR KLOM 190335Z AUTO 00000KT 10SM CLR 23/23 A2985 RMK AO1 =
2018-06-18 23:15 METAR KLOM 190315Z AUTO 00000KT 5SM CLR 23/23 A2986 RMK AO1 =
2018-06-18 22:55 METAR KLOM 190255Z AUTO 00000KT 5SM SCT120 23/23 A2987 RMK AO1 =
2018-06-18 22:35 METAR KLOM 190235Z AUTO 00000KT 7SM SCT120 23/23 A2988 RMK AO1 =
2018-06-18 22:15 METAR KLOM 190215Z AUTO 00000KT 4SM CLR 22/22 A2988 RMK AO1 =
2018-06-18 21:55 METAR KLOM 190155Z AUTO 00000KT 7SM CLR 22/22 A2988 RMK AO1 =
2018-06-18 21:35 METAR KLOM 190135Z AUTO 00000KT 7SM SCT025 SCT041 SCT065 23/23 A2987 RMK AO1 =
2018-06-18 21:15 METAR KLOM 190115Z AUTO 21007G14KT 3SM SCT023 BKN046 OVC110 23/23 A2986 RMK AO1
                 =
2018-06-18 20:55 METAR KLOM 190055Z AUTO 29005KT 4SM SCT018 BKN040 OVC060 22/22 A2989 RMK AO1 =
2018-06-18 20:35 METAR KLOM 190035Z AUTO 31008G22KT 270V360 10SM SCT038 SCT050 BKN095 28/22 A2990
                 RMK AO1 =
2018-06-18 20:15 METAR KLOM 190015Z AUTO 23007KT 10SM CLR 29/22 A2985 RMK AO1 =
2018-06-18 19:55 METAR KLOM 182355Z AUTO 22010KT 10SM CLR 29/22 A2984 RMK AO1 =
2018-06-18 19:35 METAR KLOM 182335Z AUTO 22007KT 10SM CLR 29/23 A2985 RMK AO1 =
2018-06-18 19:15 METAR KLOM 182315Z AUTO 23008G15KT 10SM CLR 30/23 A2985 RMK AO1 =
2018-06-18 18:55 METAR KLOM 182255Z AUTO 23008KT 10SM CLR 30/23 A2986 RMK AO1 =
2018-06-18 18:35 METAR KLOM 182235Z AUTO 22009G16KT 10SM CLR 31/23 A2985 RMK AO1 =
2018-06-18 18:15 METAR KLOM 182215Z AUTO 22011G15KT 10SM SCT047 31/23 A2986 RMK AO1 =
2018-06-18 17:55 METAR KLOM 182155Z AUTO 23013G18KT 10SM SCT041 SCT047 31/23 A2987 RMK AO1 =
2018-06-18 17:35 METAR KLOM 182135Z AUTO 22010KT 10SM SCT042 SCT048 31/23 A2988 RMK AO1 =
2018-06-18 17:15 METAR KLOM 182115Z AUTO 22010KT 10SM CLR 31/23 A2989 RMK AO1 =
2018-06-18 16:55 METAR KLOM 182055Z AUTO 21011KT 10SM CLR 32/23 A2990 RMK AO1 =
2018-06-18 16:35 METAR KLOM 182035Z AUTO 24009KT 10SM SCT043 SCT050 31/23 A2991 RMK AO1 =
2018-06-18 16:15 METAR KLOM 182015Z AUTO 22008KT 10SM SCT045 SCT050 32/23 A2991 RMK AO1 =
2018-06-18 15:55 METAR KLOM 181955Z AUTO 22010KT 10SM SCT045 SCT050 32/23 A2992 RMK AO1 =
2018-06-18 15:35 METAR KLOM 181935Z AUTO 23006KT 10SM SCT043 SCT050 32/23 A2993 RMK AO1 =
2018-06-18 15:15 METAR KLOM 181915Z AUTO 24005KT 10SM SCT045 SCT050 32/23 A2993 RMK AO1 =
2018-06-18 14:55 METAR KLOM 181855Z AUTO 23009KT 10SM SCT045 SCT050 31/23 A2995 RMK AO1 =
2018-06-18 14:35 METAR KLOM 181835Z AUTO 26005KT 10SM SCT045 32/23 A2995 RMK AO1 =
2018-06-18 14:15 METAR KLOM 181815Z AUTO 24008KT 10SM SCT045 SCT075 32/22 A2996 RMK AO1 =
2018-06-18 13:55 METAR KLOM 181755Z AUTO 24007KT 10SM SCT075 32/22 A2997 RMK AO1 =
2018-06-18 13:35 METAR KLOM 181735Z AUTO 25007KT 10SM SCT075 31/22 A2998 RMK AO1 =
2018-06-18 13:15 METAR KLOM 181715Z AUTO 25004KT 10SM SCT046 SCT060 BKN075 31/22 A2999 RMK AO1 =
2018-06-18 12:55 METAR KLOM 181655Z AUTO 22007KT 10SM SCT046 BKN060 31/22 A3000 RMK AO1 =
2018-06-18 12:35 METAR KLOM 181635Z AUTO 23006KT 10SM BKN048 30/21 A3000 RMK AO1 =
2018-06-18 12:15 METAR KLOM 181615Z AUTO 21010KT 10SM CLR 31/22 A3000 RMK AO1 =
2018-06-18 11:55 METAR KLOM 181555Z AUTO 25006KT 10SM CLR 30/21 A3001 RMK AO1 =
2018-06-18 11:35 METAR KLOM 181535Z AUTO 23007KT 10SM CLR 30/21 A3002 RMK AO1 =
2018-06-18 11:15 METAR KLOM 181515Z AUTO 23008KT 190V250 10SM CLR 30/21 A3003 RMK AO1 =
2018-06-18 10:55 METAR KLOM 181455Z AUTO 23006KT 10SM CLR 30/21 A3003 RMK AO1 =
2018-06-18 10:35 METAR KLOM 181435Z AUTO 24008KT 10SM CLR 29/21 A3003 RMK AO1 =
2018-06-18 10:15 METAR KLOM 181415Z AUTO 23008KT 10SM CLR 28/21 A3004 RMK AO1 =
2018-06-18 09:55 METAR KLOM 181355Z AUTO 23005KT 10SM CLR 28/21 A3004 RMK AO1 =
2018-06-18 09:35 METAR KLOM 181335Z AUTO 21006KT 10SM CLR 27/21 A3004 RMK AO1 =
2018-06-18 09:15 METAR KLOM 181315Z AUTO 25003KT 10SM CLR 26/21 A3005 RMK AO1 =
2018-06-18 08:55 METAR KLOM 181255Z AUTO 25004KT 10SM CLR 26/21 A3006 RMK AO1 =
2018-06-18 08:35 METAR KLOM 181235Z AUTO 25005KT 10SM CLR 25/21 A3006 RMK AO1 =
2018-06-18 08:15 METAR KLOM 181215Z AUTO 26004KT 10SM CLR 25/21 A3006 RMK AO1 =
2018-06-18 07:55 METAR KLOM 181155Z AUTO 24003KT 10SM CLR 24/21 A3006 RMK AO1 =
2018-06-18 07:35 METAR KLOM 181135Z AUTO 23004KT 10SM CLR 23/21 A3007 RMK AO1 =
2018-06-18 07:15 METAR KLOM 181115Z AUTO 00000KT 10SM CLR 21/20 A3007 RMK AO1 =
2018-06-18 06:55 METAR KLOM 181055Z AUTO 00000KT 10SM CLR 21/20 A3007 RMK AO1 =
2018-06-18 06:35 METAR KLOM 181035Z AUTO 00000KT 10SM CLR 20/20 A3008 RMK AO1 =
2018-06-18 06:15 METAR KLOM 181015Z AUTO 00000KT 7SM CLR 19/19 A3008 RMK AO1 =
2018-06-18 05:55 METAR KLOM 180955Z AUTO 00000KT 7SM CLR 18/18 A3008 RMK AO1 =
2018-06-18 05:35 METAR KLOM 180935Z AUTO 00000KT 7SM CLR 18/18 A3009 RMK AO1 =
2018-06-18 05:15 METAR KLOM 180915Z AUTO 00000KT 7SM CLR 18/18 A3008 RMK AO1 =
2018-06-18 04:55 METAR KLOM 180855Z AUTO 00000KT 10SM CLR 18/18 A3008 RMK AO1 =
2018-06-18 04:35 METAR KLOM 180835Z AUTO 00000KT 10SM CLR 19/19 A3008 RMK AO1 =
2018-06-18 04:15 METAR KLOM 180815Z AUTO 00000KT 10SM CLR 18/18 A3008 RMK AO1 =
2018-06-18 03:55 METAR KLOM 180755Z AUTO 00000KT 10SM CLR 19/19 A3008 RMK AO1 =
2018-06-18 03:35 METAR KLOM 180735Z AUTO 00000KT 10SM CLR 18/18 A3008 RMK AO1 =
2018-06-18 03:15 METAR KLOM 180715Z AUTO 00000KT 10SM CLR 18/18 A3009 RMK AO1 =
2018-06-18 02:55 METAR KLOM 180655Z AUTO 00000KT 10SM CLR 18/18 A3009 RMK AO1 =
2018-06-18 02:35 METAR KLOM 180635Z AUTO 00000KT 10SM CLR 18/18 A3009 RMK AO1 =
2018-06-18 02:15 METAR KLOM 180615Z AUTO 00000KT 10SM CLR 19/18 A3009 RMK AO1 =
2018-06-18 01:55 METAR KLOM 180555Z AUTO 00000KT 10SM CLR 19/18 A3009 RMK AO1 =
2018-06-18 01:35 METAR KLOM 180535Z AUTO 00000KT 10SM CLR 19/18 A3009 RMK AO1 =
2018-06-18 01:15 METAR KLOM 180515Z AUTO 00000KT 10SM CLR 20/17 A3009 RMK AO1 =

Support USWX by starting your Amazon purchase here.